Time;durP1;ratioP1;P1;durP2;ratioP2;P2;SDS_P1;SDS_P2;PMS_P1;PMS_P2;Temp;Humidity;BMP_temperature;BMP_pressure;BME280_temperature;BME280_humidity;BME280_pressure;Samples;Min_cycle;Max_cycle;Signal;HPM_P1;HPM_P2
2021/05/05 00:01:22;;;;;;;3.58;1.95;;;6.60;87.70;;;;;;4928942;29;20480;-70
2021/05/05 00:03:48;;;;;;;6.18;1.70;;;6.60;87.70;;;;;;4929566;29;20124;-71
2021/05/05 00:06:16;;;;;;;6.93;2.17;;;6.60;86.70;;;;;;4927249;29;20047;-71
2021/05/05 00:08:42;;;;;;;7.13;2.00;;;6.60;87.00;;;;;;4928886;29;20102;-70
2021/05/05 00:11:08;;;;;;;8.55;2.13;;;6.60;87.20;;;;;;4928667;29;20040;-71
2021/05/05 00:13:35;;;;;;;4.22;1.90;;;6.60;87.20;;;;;;4929270;29;20063;-71
2021/05/05 00:16:01;;;;;;;8.80;2.15;;;6.60;86.80;;;;;;4929346;29;20051;-70
2021/05/05 00:18:27;;;;;;;5.60;2.40;;;6.60;86.60;;;;;;4928236;29;20098;-73
2021/05/05 00:20:53;;;;;;;5.53;2.17;;;6.60;86.70;;;;;;4930670;29;20527;-71
2021/05/05 00:23:19;;;;;;;4.95;2.05;;;6.60;86.20;;;;;;4928815;29;20023;-71
2021/05/05 00:25:45;;;;;;;10.57;1.95;;;6.60;87.20;;;;;;4927402;29;20028;-73
2021/05/05 00:28:10;;;;;;;8.55;1.85;;;6.50;87.00;;;;;;4928037;29;20460;-70
2021/05/05 00:30:36;;;;;;;5.28;1.50;;;6.60;86.30;;;;;;4928298;29;20035;-70
2021/05/05 00:33:02;;;;;;;7.68;1.85;;;6.60;86.10;;;;;;4928973;29;20122;-70
2021/05/05 00:35:28;;;;;;;7.55;1.85;;;6.60;86.80;;;;;;4928170;29;20110;-71
2021/05/05 00:37:54;;;;;;;7.25;1.52;;;6.60;86.00;;;;;;4928055;29;20039;-71
2021/05/05 00:40:20;;;;;;;7.85;1.48;;;6.60;85.30;;;;;;4928078;29;20528;-71
2021/05/05 00:42:45;;;;;;;2.08;0.98;;;6.60;85.50;;;;;;4928438;29;20026;-70
2021/05/05 00:45:13;;;;;;;5.50;1.35;;;6.60;84.80;;;;;;4928670;29;20036;-70
2021/05/05 00:47:40;;;;;;;6.40;1.70;;;6.70;83.80;;;;;;4924784;29;20098;-70
2021/05/05 00:50:08;;;;;;;3.88;1.60;;;6.70;84.50;;;;;;4928415;29;20024;-70
2021/05/05 00:52:34;;;;;;;6.53;1.52;;;6.60;84.60;;;;;;4928441;29;20610;-69
2021/05/05 00:55:00;;;;;;;4.95;1.20;;;6.60;84.40;;;;;;4925657;29;20291;-70
2021/05/05 00:57:27;;;;;;;7.03;1.92;;;6.60;84.70;;;;;;4927981;29;20526;-70
2021/05/05 00:59:53;;;;;;;5.93;1.52;;;6.60;84.90;;;;;;4927786;29;20042;-71
2021/05/05 01:02:19;;;;;;;1.42;1.00;;;6.50;85.60;;;;;;4929426;29;20020;-70
2021/05/05 01:04:45;;;;;;;3.10;1.10;;;6.40;85.80;;;;;;4929677;29;20039;-72
2021/05/05 01:07:11;;;;;;;6.60;1.30;;;6.40;86.20;;;;;;4930336;29;20416;-70
2021/05/05 01:09:42;;;;;;;6.57;1.73;;;6.30;86.90;;;;;;4928996;29;20047;-70
2021/05/05 01:12:08;;;;;;;9.32;1.23;;;6.20;87.00;;;;;;4928784;29;20086;-71
2021/05/05 01:14:34;;;;;;;2.75;1.23;;;6.20;87.40;;;;;;4929354;29;20040;-71
2021/05/05 01:16:59;;;;;;;3.45;1.42;;;6.20;87.10;;;;;;4929990;29;20042;-70
2021/05/05 01:19:25;;;;;;;3.72;1.10;;;6.20;87.80;;;;;;4930539;29;20110;-70
2021/05/05 01:21:50;;;;;;;5.72;1.67;;;6.10;87.90;;;;;;4930305;29;20039;-70
2021/05/05 01:24:16;;;;;;;3.75;1.48;;;6.10;88.00;;;;;;4929083;29;20035;-71
2021/05/05 01:26:42;;;;;;;6.22;1.98;;;6.10;88.00;;;;;;4928005;29;20050;-70
2021/05/05 01:29:10;;;;;;;3.83;1.42;;;6.10;88.10;;;;;;4929704;29;20024;-70
2021/05/05 01:31:36;;;;;;;8.68;1.88;;;6.10;88.20;;;;;;4929187;29;20042;-70
2021/05/05 01:34:02;;;;;;;2.72;1.10;;;6.10;87.80;;;;;;4929489;29;20027;-70
2021/05/05 01:36:31;;;;;;;5.90;1.40;;;6.10;88.20;;;;;;4930957;29;20028;-71
2021/05/05 01:38:57;;;;;;;5.90;1.90;;;6.10;88.20;;;;;;4929085;29;20046;-70
2021/05/05 01:41:23;;;;;;;5.45;1.63;;;6.10;88.20;;;;;;4929490;29;20032;-70
2021/05/05 01:43:49;;;;;;;4.55;1.65;;;6.10;87.70;;;;;;4929929;29;20138;-70
2021/05/05 01:46:18;;;;;;;4.78;1.77;;;6.10;87.90;;;;;;4929678;29;20106;-71
2021/05/05 01:48:44;;;;;;;6.18;1.50;;;6.10;88.20;;;;;;4929832;29;20031;-70
2021/05/05 01:51:10;;;;;;;5.45;1.42;;;6.10;88.20;;;;;;4929152;29;20047;-71
2021/05/05 01:53:35;;;;;;;6.70;1.58;;;6.10;87.90;;;;;;4929174;29;20136;-69
2021/05/05 01:56:01;;;;;;;5.97;1.50;;;6.20;87.10;;;;;;4928249;29;20110;-70
2021/05/05 01:58:27;;;;;;;5.80;1.70;;;6.20;87.20;;;;;;4929444;29;20472;-70
2021/05/05 02:00:53;;;;;;;3.55;1.13;;;6.20;87.00;;;;;;4928481;29;20527;-71
2021/05/05 02:03:18;;;;;;;3.33;1.08;;;6.40;85.60;;;;;;4927937;29;20024;-70
2021/05/05 02:05:44;;;;;;;2.53;0.93;;;6.30;84.90;;;;;;4929588;29;20039;-71
2021/05/05 02:08:09;;;;;;;3.75;1.08;;;6.40;84.40;;;;;;4933457;29;20334;-70
2021/05/05 02:10:35;;;;;;;3.72;1.10;;;6.40;84.20;;;;;;4931935;29;20032;-71
2021/05/05 02:13:01;;;;;;;2.83;0.90;;;6.50;84.00;;;;;;4932870;29;20035;-71
2021/05/05 02:15:26;;;;;;;6.28;1.20;;;6.40;84.50;;;;;;4933964;29;20036;-69
2021/05/05 02:17:52;;;;;;;3.33;0.95;;;6.40;84.50;;;;;;4933137;29;20323;-70
2021/05/05 02:20:21;;;;;;;4.53;0.90;;;6.40;85.00;;;;;;4933526;29;20539;-70
2021/05/05 02:22:48;;;;;;;5.03;1.00;;;6.30;85.30;;;;;;4933051;29;20028;-71
2021/05/05 02:25:14;;;;;;;4.32;1.30;;;6.40;84.60;;;;;;4932681;29;20425;-71
2021/05/05 02:27:40;;;;;;;4.72;1.13;;;6.30;84.80;;;;;;4931451;29;20062;-70
2021/05/05 02:30:09;;;;;;;3.90;1.00;;;6.30;84.80;;;;;;4933166;29;20031;-70
2021/05/05 02:32:36;;;;;;;6.70;1.30;;;6.30;84.40;;;;;;4933179;29;20039;-70
2021/05/05 02:35:04;;;;;;;3.53;0.90;;;6.40;85.00;;;;;;4931710;29;20082;-70
2021/05/05 02:37:30;;;;;;;4.57;1.20;;;6.30;84.50;;;;;;4932252;29;20020;-71
2021/05/05 02:39:55;;;;;;;5.40;0.95;;;6.30;84.20;;;;;;4931607;29;20038;-71
2021/05/05 02:42:21;;;;;;;3.92;1.10;;;6.30;84.00;;;;;;4933318;29;20316;-71
2021/05/05 02:44:49;;;;;;;1.50;0.77;;;6.30;84.30;;;;;;4934322;29;20032;-71
2021/05/05 02:47:17;;;;;;;6.53;1.70;;;6.30;83.90;;;;;;4935245;29;20408;-70
2021/05/05 02:49:42;;;;;;;2.42;0.93;;;6.30;84.30;;;;;;4932872;29;20024;-70
2021/05/05 02:52:08;;;;;;;5.68;1.00;;;6.30;84.00;;;;;;4933276;29;20051;-71
2021/05/05 02:54:34;;;;;;;8.43;1.85;;;6.30;84.00;;;;;;4930985;29;20496;-70
2021/05/05 02:57:00;;;;;;;10.25;2.10;;;6.30;84.00;;;;;;4930497;29;20649;-70
2021/05/05 02:59:26;;;;;;;3.92;0.80;;;6.30;84.50;;;;;;4932526;29;20023;-70
2021/05/05 03:01:53;;;;;;;3.13;0.80;;;6.30;84.60;;;;;;4933442;29;20032;-70
2021/05/05 03:04:18;;;;;;;3.47;1.08;;;6.30;84.00;;;;;;4932453;29;20185;-70
2021/05/05 03:06:44;;;;;;;3.40;0.57;;;6.30;84.30;;;;;;4932448;29;20169;-70
2021/05/05 03:09:11;;;;;;;6.38;1.35;;;6.30;84.00;;;;;;4932040;29;20031;-70
2021/05/05 03:11:37;;;;;;;6.70;1.08;;;6.30;84.30;;;;;;4932720;29;20504;-70
2021/05/05 03:14:02;;;;;;;2.83;0.90;;;6.30;84.60;;;;;;4930874;29;20024;-70
2021/05/05 03:16:28;;;;;;;4.45;0.90;;;6.20;84.80;;;;;;4931783;29;20027;-69
2021/05/05 03:18:54;;;;;;;5.28;1.05;;;6.20;84.80;;;;;;4931446;29;20040;-70
2021/05/05 03:21:20;;;;;;;4.72;1.33;;;6.20;85.40;;;;;;4932141;29;20473;-70
2021/05/05 03:23:47;;;;;;;7.07;1.20;;;6.10;85.80;;;;;;4930553;29;20481;-71
2021/05/05 03:26:13;;;;;;;2.67;1.05;;;6.20;85.40;;;;;;4930623;29;20028;-70
2021/05/05 03:28:38;;;;;;;4.82;1.10;;;6.10;85.70;;;;;;4929014;29;20072;-70
2021/05/05 03:31:04;;;;;;;4.70;0.90;;;6.10;85.60;;;;;;4932309;29;20055;-70
2021/05/05 03:33:29;;;;;;;3.65;1.10;;;6.20;85.20;;;;;;4931665;29;20163;-70
2021/05/05 03:35:55;;;;;;;6.60;1.40;;;6.10;85.00;;;;;;4931275;29;20639;-70
2021/05/05 03:38:21;;;;;;;10.20;1.80;;;6.10;85.00;;;;;;4931722;29;20038;-70
2021/05/05 03:40:47;;;;;;;5.53;1.20;;;6.10;85.10;;;;;;4931390;29;20036;-70
2021/05/05 03:43:13;;;;;;;4.75;1.33;;;6.20;83.90;;;;;;4931732;29;20151;-70
2021/05/05 03:45:38;;;;;;;7.38;1.30;;;6.20;84.00;;;;;;4931839;29;20031;-70
2021/05/05 03:48:05;;;;;;;4.70;1.23;;;6.20;84.60;;;;;;4931278;29;20031;-70
2021/05/05 03:50:32;;;;;;;5.88;1.23;;;6.20;84.50;;;;;;4931259;29;20424;-70
2021/05/05 03:52:58;;;;;;;6.82;1.25;;;6.20;84.20;;;;;;4931680;29;20028;-71
2021/05/05 03:55:24;;;;;;;3.15;1.00;;;6.20;84.70;;;;;;4929319;29;20038;-70
2021/05/05 03:57:50;;;;;;;6.15;1.38;;;6.20;84.60;;;;;;4930273;29;20076;-70
2021/05/05 04:00:16;;;;;;;3.85;0.80;;;6.20;84.70;;;;;;4931921;29;20113;-70
2021/05/05 04:02:41;;;;;;;4.05;1.48;;;6.20;84.60;;;;;;4929950;29;20498;-70
2021/05/05 04:05:08;;;;;;;7.57;1.10;;;6.20;84.80;;;;;;4930970;29;20066;-71
2021/05/05 04:07:33;;;;;;;3.63;0.98;;;6.20;84.70;;;;;;4932019;29;20043;-70
2021/05/05 04:09:59;;;;;;;6.85;1.10;;;6.20;84.30;;;;;;4930243;29;20058;-71
2021/05/05 04:12:28;;;;;;;3.53;1.23;;;6.20;84.40;;;;;;4931364;29;20035;-71
2021/05/05 04:14:54;;;;;;;3.55;1.10;;;6.20;84.00;;;;;;4936327;28;20035;-70
2021/05/05 04:17:19;;;;;;;5.80;1.15;;;6.20;84.10;;;;;;4931933;29;20054;-70
2021/05/05 04:19:45;;;;;;;5.00;1.20;;;6.20;83.50;;;;;;4931348;29;20026;-70
2021/05/05 04:22:11;;;;;;;5.40;1.40;;;6.20;83.90;;;;;;4943463;29;20028;-71
2021/05/05 04:24:36;;;;;;;5.25;1.20;;;6.30;83.70;;;;;;4937853;28;20091;-71
2021/05/05 04:27:02;;;;;;;3.83;1.08;;;6.20;83.50;;;;;;4934033;29;20098;-71
2021/05/05 04:29:28;;;;;;;6.80;1.25;;;6.30;83.30;;;;;;4917132;29;20031;-70
2021/05/05 04:31:54;;;;;;;4.28;1.23;;;6.30;83.10;;;;;;4933579;29;20103;-70
2021/05/05 04:34:20;;;;;;;6.50;1.20;;;6.20;83.50;;;;;;4928820;29;20523;-71
2021/05/05 04:36:46;;;;;;;4.67;1.43;;;6.20;83.80;;;;;;4928438;29;20043;-70
2021/05/05 04:39:12;;;;;;;5.68;1.55;;;6.20;83.60;;;;;;4927354;29;20472;-70
2021/05/05 04:41:38;;;;;;;8.07;1.40;;;6.20;83.80;;;;;;4928634;29;20111;-71
2021/05/05 04:44:04;;;;;;;4.85;1.15;;;6.20;83.60;;;;;;4928292;29;20157;-70
2021/05/05 04:46:30;;;;;;;5.80;1.27;;;6.20;84.10;;;;;;4929093;29;20094;-70
2021/05/05 04:48:55;;;;;;;4.43;1.17;;;6.20;83.70;;;;;;4930015;29;20111;-70
2021/05/05 04:51:21;;;;;;;2.65;0.73;;;6.20;83.70;;;;;;4930553;29;20083;-70
2021/05/05 04:53:47;;;;;;;4.38;0.98;;;6.20;83.40;;;;;;4929180;29;20404;-70
2021/05/05 04:56:12;;;;;;;6.82;1.40;;;6.20;83.60;;;;;;4928501;29;20082;-70
2021/05/05 04:58:38;;;;;;;4.05;1.10;;;6.10;83.90;;;;;;4926853;29;20031;-71
2021/05/05 05:01:04;;;;;;;2.92;0.93;;;6.20;83.80;;;;;;4927193;29;20390;-70
2021/05/05 05:03:30;;;;;;;1.75;0.98;;;6.20;83.80;;;;;;4928889;29;20023;-71
2021/05/05 05:05:55;;;;;;;5.28;1.35;;;6.20;84.10;;;;;;4925870;29;20112;-71
2021/05/05 05:08:21;;;;;;;8.98;1.17;;;6.20;84.20;;;;;;4925281;29;20086;-71
2021/05/05 05:10:47;;;;;;;5.68;1.20;;;6.20;84.20;;;;;;4930318;29;20123;-70
2021/05/05 05:13:12;;;;;;;6.07;1.27;;;6.20;84.10;;;;;;4929609;29;20031;-71
2021/05/05 05:15:38;;;;;;;6.60;1.30;;;6.20;84.30;;;;;;4930944;29;20070;-70
2021/05/05 05:18:04;;;;;;;4.40;1.00;;;6.20;84.30;;;;;;4929132;29;20032;-70
2021/05/05 05:20:30;;;;;;;4.82;1.13;;;6.30;84.40;;;;;;4925520;29;20028;-72
2021/05/05 05:22:55;;;;;;;4.45;1.15;;;6.30;83.90;;;;;;4930164;29;20038;-71
2021/05/05 05:25:24;;;;;;;2.08;1.05;;;6.30;84.20;;;;;;4929321;29;20062;-71
2021/05/05 05:27:50;;;;;;;7.18;1.75;;;6.20;84.20;;;;;;4928234;29;20123;-70
2021/05/05 05:30:16;;;;;;;6.53;1.33;;;6.20;84.10;;;;;;4927656;29;20095;-70
2021/05/05 05:32:42;;;;;;;7.85;1.30;;;6.20;84.10;;;;;;4930018;29;20078;-70
2021/05/05 05:35:08;;;;;;;7.45;1.40;;;6.20;83.50;;;;;;4928527;28;20036;-70
2021/05/05 05:37:33;;;;;;;4.93;1.00;;;6.20;83.60;;;;;;4930157;29;20074;-71
2021/05/05 05:39:59;;;;;;;5.85;1.40;;;6.10;84.60;;;;;;4930273;29;20024;-71
2021/05/05 05:42:25;;;;;;;6.75;1.52;;;6.10;84.70;;;;;;4936219;29;20032;-72
2021/05/05 05:44:50;;;;;;;6.93;1.70;;;6.10;84.30;;;;;;4935987;29;20440;-71
2021/05/05 05:47:16;;;;;;;8.02;1.50;;;6.10;84.20;;;;;;4935850;29;20036;-70
2021/05/05 05:49:42;;;;;;;5.78;1.10;;;6.10;84.10;;;;;;4935268;29;20030;-70
2021/05/05 05:52:07;;;;;;;7.10;1.40;;;6.10;83.20;;;;;;4936118;29;20445;-71
2021/05/05 05:54:33;;;;;;;4.88;1.45;;;6.10;83.80;;;;;;4936040;29;20078;-71
2021/05/05 05:56:58;;;;;;;5.82;1.42;;;6.20;83.60;;;;;;4935505;29;20028;-75
2021/05/05 05:59:24;;;;;;;7.40;1.58;;;6.30;83.70;;;;;;4933012;29;20031;-71
2021/05/05 06:01:50;;;;;;;3.83;1.15;;;6.30;83.20;;;;;;4934273;29;20023;-71
2021/05/05 06:04:16;;;;;;;4.68;1.15;;;6.50;82.70;;;;;;4934902;29;20075;-73
2021/05/05 06:06:43;;;;;;;8.32;1.77;;;6.60;81.90;;;;;;4939536;29;20032;-72
2021/05/05 06:09:08;;;;;;;3.78;1.48;;;6.80;82.40;;;;;;4945239;28;20063;-72
2021/05/05 06:11:34;;;;;;;5.68;1.15;;;6.80;81.30;;;;;;4929675;29;20083;-71
2021/05/05 06:14:00;;;;;;;6.38;1.40;;;6.80;80.80;;;;;;4930497;29;20499;-72
2021/05/05 06:16:25;;;;;;;4.85;1.05;;;6.80;80.70;;;;;;4934979;29;20090;-71
2021/05/05 06:18:51;;;;;;;5.57;1.55;;;6.70;80.70;;;;;;4933951;29;20504;-71
2021/05/05 06:21:16;;;;;;;6.38;1.20;;;6.70;80.80;;;;;;4936110;29;20024;-72
2021/05/05 06:23:42;;;;;;;5.28;1.67;;;6.80;80.70;;;;;;4935127;29;20023;-72
2021/05/05 06:26:08;;;;;;;6.18;1.30;;;6.80;80.80;;;;;;4935240;29;20024;-72
2021/05/05 06:28:33;;;;;;;6.70;1.52;;;6.80;80.60;;;;;;4934037;29;20059;-71
2021/05/05 06:30:59;;;;;;;6.30;1.45;;;6.80;81.70;;;;;;4934780;29;20106;-71
2021/05/05 06:33:25;;;;;;;7.25;1.42;;;6.70;81.70;;;;;;4935490;29;20484;-71
2021/05/05 06:35:51;;;;;;;5.70;1.25;;;6.70;82.10;;;;;;4935294;29;20115;-71
2021/05/05 06:38:17;;;;;;;6.20;1.55;;;6.70;82.50;;;;;;4934251;29;20505;-72
2021/05/05 06:40:42;;;;;;;5.05;1.55;;;6.70;82.80;;;;;;4935469;29;20061;-71
2021/05/05 06:43:08;;;;;;;8.32;1.20;;;6.60;83.60;;;;;;4936707;29;20034;-71
2021/05/05 06:45:34;;;;;;;6.72;1.55;;;6.50;83.60;;;;;;4935518;29;20396;-71
2021/05/05 06:47:59;;;;;;;4.88;1.33;;;6.50;85.30;;;;;;4935616;29;20054;-71
2021/05/05 06:50:27;;;;;;;5.88;1.60;;;6.40;85.80;;;;;;4936212;29;20449;-70
2021/05/05 06:52:54;;;;;;;7.30;1.50;;;6.40;85.20;;;;;;4932066;29;20041;-71
2021/05/05 06:55:20;;;;;;;5.72;1.50;;;6.30;86.40;;;;;;4931495;29;20059;-71
2021/05/05 06:57:45;;;;;;;7.38;1.63;;;6.30;86.50;;;;;;4932379;29;20020;-71
2021/05/05 07:00:11;;;;;;;10.57;1.92;;;6.30;86.30;;;;;;4931276;29;20075;-71
2021/05/05 07:02:37;;;;;;;3.60;1.17;;;6.20;86.50;;;;;;4932552;29;20027;-71
2021/05/05 07:05:03;;;;;;;4.25;1.13;;;6.30;86.50;;;;;;4932370;29;20059;-71
2021/05/05 07:07:29;;;;;;;3.97;1.15;;;6.30;86.10;;;;;;4931438;29;20035;-70
2021/05/05 07:09:55;;;;;;;4.65;1.10;;;6.40;86.40;;;;;;4931324;29;20032;-71
2021/05/05 07:12:21;;;;;;;13.10;2.30;;;6.30;87.10;;;;;;4928323;29;20023;-70
2021/05/05 07:14:47;;;;;;;7.05;1.73;;;6.30;88.60;;;;;;4931489;29;20455;-71
2021/05/05 07:17:12;;;;;;;6.65;1.85;;;6.40;87.90;;;;;;4931946;29;20493;-72
2021/05/05 07:19:39;;;;;;;5.68;1.50;;;6.40;87.90;;;;;;4932009;29;20071;-70
2021/05/05 07:22:05;;;;;;;4.57;1.67;;;6.30;88.70;;;;;;4931983;29;20054;-71
2021/05/05 07:24:31;;;;;;;8.52;1.60;;;6.30;89.00;;;;;;4930631;29;20397;-71
2021/05/05 07:26:56;;;;;;;6.38;1.40;;;6.30;89.30;;;;;;4931512;29;20019;-70
2021/05/05 07:29:22;;;;;;;8.88;1.92;;;6.40;88.60;;;;;;4931336;29;20074;-71
2021/05/05 07:31:48;;;;;;;6.68;1.75;;;6.40;87.80;;;;;;4932047;29;20019;-71
2021/05/05 07:34:15;;;;;;;12.20;2.17;;;6.60;88.50;;;;;;4932378;29;20036;-72
2021/05/05 07:36:45;;;;;;;8.73;1.98;;;6.80;87.70;;;;;;4929956;29;20428;-71
2021/05/05 07:49:51;;;;;;;9.02;1.48;;;7.10;83.70;;;;;;4927109;29;20047;-70
2021/05/05 07:52:20;;;;;;;8.45;1.65;;;7.20;83.90;;;;;;4930525;29;20485;-72
2021/05/05 07:54:46;;;;;;;11.05;1.88;;;7.30;82.20;;;;;;4931095;29;20488;-71
2021/05/05 07:57:12;;;;;;;9.98;1.65;;;7.20;81.90;;;;;;4929275;29;20456;-70
2021/05/05 07:59:38;;;;;;;5.38;1.67;;;7.10;81.30;;;;;;4928914;29;20070;-72
2021/05/05 08:02:05;;;;;;;5.03;1.38;;;7.20;80.50;;;;;;4929572;29;20050;-71
2021/05/05 08:04:32;;;;;;;15.98;1.85;;;7.10;80.30;;;;;;4929015;29;20486;-71
2021/05/05 08:06:59;;;;;;;8.25;1.50;;;7.10;81.40;;;;;;4932030;29;20456;-72
2021/05/05 08:09:25;;;;;;;6.30;1.40;;;7.10;81.20;;;;;;4930832;29;20408;-73
2021/05/05 08:11:51;;;;;;;6.82;1.50;;;7.20;80.80;;;;;;4931096;29;20086;-71
2021/05/05 08:14:18;;;;;;;7.40;1.92;;;7.10;79.90;;;;;;4930889;29;20028;-71
2021/05/05 08:16:44;;;;;;;6.30;1.45;;;7.10;81.00;;;;;;4929197;29;20024;-71
2021/05/05 08:19:10;;;;;;;11.43;2.13;;;7.10;80.80;;;;;;4930082;29;20114;-71
2021/05/05 08:21:36;;;;;;;5.43;1.50;;;7.10;81.60;;;;;;4932800;29;20107;-72
2021/05/05 08:24:02;;;;;;;8.50;1.42;;;7.00;81.10;;;;;;4931899;29;20516;-72
2021/05/05 08:26:30;;;;;;;9.27;2.13;;;7.00;81.80;;;;;;4930071;29;20036;-73
2021/05/05 08:28:56;;;;;;;10.38;1.67;;;7.10;82.90;;;;;;4930116;29;20023;-71
2021/05/05 08:31:21;;;;;;;10.05;2.83;;;7.10;80.70;;;;;;4926762;29;20031;-71
2021/05/05 08:33:47;;;;;;;11.25;2.17;;;7.10;80.70;;;;;;4929504;29;20110;-71
2021/05/05 08:36:13;;;;;;;7.10;1.83;;;7.00;81.90;;;;;;4928028;29;20031;-71
2021/05/05 08:38:39;;;;;;;6.20;1.70;;;7.00;81.50;;;;;;4911637;29;20137;-72
2021/05/05 08:41:05;;;;;;;11.38;2.10;;;7.10;80.60;;;;;;4923635;29;20574;-71
2021/05/05 08:43:34;;;;;;;18.02;2.25;;;7.20;79.90;;;;;;4927685;29;20098;-72
2021/05/05 08:46:01;;;;;;;10.20;2.38;;;7.30;80.00;;;;;;4930423;29;20489;-71
2021/05/05 08:48:27;;;;;;;10.98;2.00;;;7.50;79.10;;;;;;4927150;29;20526;-72
2021/05/05 08:50:54;;;;;;;7.72;1.70;;;7.60;80.20;;;;;;4930006;29;20051;-72
2021/05/05 08:53:19;;;;;;;7.72;1.50;;;7.60;78.30;;;;;;4930702;29;20390;-71
2021/05/05 08:55:45;;;;;;;5.90;1.58;;;7.80;79.90;;;;;;4929748;29;20095;-72
2021/05/05 08:58:11;;;;;;;9.18;2.05;;;8.00;78.90;;;;;;4929245;29;20027;-72
2021/05/05 09:00:37;;;;;;;10.85;2.03;;;8.00;77.60;;;;;;4926307;29;20027;-71
2021/05/05 09:03:06;;;;;;;7.35;1.55;;;8.00;79.30;;;;;;4929970;29;20035;-71
2021/05/05 09:05:51;;;;;;;8.68;1.67;;;7.80;78.10;;;;;;4928290;29;20027;-71
2021/05/05 09:08:17;;;;;;;10.88;1.98;;;8.00;78.80;;;;;;4923777;29;20051;-71
2021/05/05 09:10:51;;;;;;;7.35;1.25;;;8.10;79.00;;;;;;4928185;29;20054;-71
2021/05/05 09:13:41;;;;;;;10.30;1.70;;;8.00;78.10;;;;;;4929229;29;20031;-75
2021/05/05 09:16:12;;;;;;;10.93;1.92;;;7.80;78.30;;;;;;4916940;29;20046;-71
2021/05/05 09:18:58;;;;;;;7.38;2.03;;;7.70;77.70;;;;;;4926593;29;20028;-71
2021/05/05 09:21:41;;;;;;;9.57;1.92;;;7.50;79.40;;;;;;4926454;29;20032;-72
2021/05/05 09:24:29;;;;;;;9.77;1.60;;;7.30;80.80;;;;;;4929453;29;20408;-71
2021/05/05 09:27:00;;;;;;;13.05;2.17;;;7.10;81.30;;;;;;4910212;29;20039;-70
2021/05/05 09:29:46;;;;;;;7.15;1.70;;;6.90;84.10;;;;;;4928000;29;20052;-72
2021/05/05 09:32:17;;;;;;;7.55;1.48;;;6.70;85.60;;;;;;4928094;29;20047;-72
2021/05/05 09:34:48;;;;;;;;;;;6.50;87.00;;;;;;4927649;29;20028;-72
2021/05/05 09:37:14;;;;;;;7.37;1.80;;;6.30;88.30;;;;;;4929474;29;20387;-71
2021/05/05 09:39:40;;;;;;;9.13;2.20;;;6.20;89.10;;;;;;4929476;29;20027;-72
2021/05/05 09:42:18;;;;;;;12.93;2.25;;;6.30;89.60;;;;;;4929042;29;20028;-71
2021/05/05 09:44:58;;;;;;;7.18;1.92;;;6.40;90.60;;;;;;4929108;29;20027;-71
2021/05/05 09:47:44;;;;;;;10.32;2.33;;;6.60;89.70;;;;;;4924813;29;20286;-72
2021/05/05 09:50:24;;;;;;;7.80;1.65;;;6.70;87.80;;;;;;4926767;29;20035;-72
2021/05/05 09:52:50;;;;;;;10.20;2.55;;;6.90;88.80;;;;;;4929300;29;20115;-72
2021/05/05 09:55:18;;;;;;;8.15;2.03;;;7.00;88.20;;;;;;4929390;29;20103;-72
2021/05/05 09:57:44;;;;;;;6.90;2.42;;;6.80;87.20;;;;;;4929620;29;20070;-72
2021/05/05 10:00:12;;;;;;;7.60;1.80;;;6.70;88.30;;;;;;4929605;29;20059;-72
2021/05/05 10:02:47;;;;;;;4.65;1.67;;;7.00;88.30;;;;;;4927116;29;20046;-71
2021/05/05 10:05:19;;;;;;;9.02;1.67;;;7.10;88.10;;;;;;4928781;29;20040;-72
2021/05/05 10:07:59;;;;;;;5.80;1.25;;;7.20;88.20;;;;;;4927648;29;20032;-71
2021/05/05 10:10:28;;;;;;;3.90;0.95;;;7.30;86.70;;;;;;4926744;29;20338;-72
2021/05/05 10:13:00;;;;;;;10.05;1.65;;;7.40;86.00;;;;;;4929351;29;20507;-72
2021/05/05 10:15:27;;;;;;;4.65;1.13;;;7.40;84.60;;;;;;4929794;29;20400;-72
2021/05/05 10:17:54;;;;;;;8.50;1.60;;;7.50;82.70;;;;;;4929010;29;20464;-71
2021/05/05 10:20:22;;;;;;;8.48;1.35;;;7.80;82.30;;;;;;4927452;29;20032;-72
2021/05/05 10:22:52;;;;;;;6.75;1.95;;;8.30;82.00;;;;;;4929040;29;20031;-71
2021/05/05 10:25:18;;;;;;;5.55;1.63;;;8.50;81.50;;;;;;4929800;29;20036;-72
2021/05/05 10:27:44;;;;;;;9.18;1.80;;;8.40;80.20;;;;;;4930013;29;20032;-72
2021/05/05 10:30:13;;;;;;;9.75;2.00;;;8.30;79.80;;;;;;4934122;29;20087;-72
2021/05/05 10:32:45;;;;;;;7.15;1.45;;;8.30;81.90;;;;;;4936581;29;20031;-73
2021/05/05 10:35:15;;;;;;;9.25;1.73;;;8.10;79.10;;;;;;4938078;29;20328;-71
2021/05/05 10:37:42;;;;;;;6.53;2.03;;;8.00;80.70;;;;;;4933472;29;20036;-71
2021/05/05 10:40:15;;;;;;;6.93;1.63;;;7.90;81.10;;;;;;4940488;29;20024;-71
2021/05/05 10:42:53;;;;;;;4.03;1.42;;;7.80;80.80;;;;;;4932026;29;20028;-72
2021/05/05 10:45:41;;;;;;;4.57;1.20;;;7.70;80.70;;;;;;4934965;29;20297;-72
2021/05/05 10:48:07;;;;;;;4.43;1.23;;;7.70;80.70;;;;;;4933054;29;20031;-71
2021/05/05 10:50:47;;;;;;;7.35;1.98;;;7.60;80.10;;;;;;4932861;29;20086;-73
2021/05/05 10:53:14;;;;;;;5.13;1.50;;;7.70;80.40;;;;;;4931761;29;20040;-71
2021/05/05 10:55:43;;;;;;;4.45;1.17;;;7.70;80.40;;;;;;4933774;29;20046;-71
2021/05/05 10:58:24;;;;;;;3.55;0.93;;;7.80;81.40;;;;;;4932026;29;20102;-71
2021/05/05 11:01:07;;;;;;;2.40;0.95;;;7.70;81.30;;;;;;4929471;29;20523;-72
2021/05/05 11:03:42;;;;;;;5.45;0.80;;;7.90;82.70;;;;;;4930295;29;20726;-71
2021/05/05 11:06:33;;;;;;;1.13;0.70;;;7.80;81.70;;;;;;4929477;29;20048;-72
2021/05/05 11:09:17;;;;;;;1.52;0.60;;;7.70;81.80;;;;;;4931700;29;20083;-72
2021/05/05 11:11:52;;;;;;;3.40;0.85;;;7.70;82.90;;;;;;4932573;29;20055;-71
2021/05/05 11:14:24;;;;;;;3.28;1.08;;;7.40;82.90;;;;;;4933181;29;20060;-73
2021/05/05 11:16:54;;;;;;;5.95;0.95;;;7.30;83.90;;;;;;4929606;29;20031;-71
2021/05/05 11:19:37;;;;;;;2.80;0.70;;;7.40;85.30;;;;;;4930099;29;20106;-73
2021/05/05 11:22:18;;;;;;;1.50;0.68;;;7.40;84.70;;;;;;4931716;29;20044;-74
2021/05/05 11:24:44;;;;;;;2.97;1.05;;;7.60;85.20;;;;;;4924358;29;20024;-72
2021/05/05 11:27:12;;;;;;;3.28;1.10;;;7.60;85.90;;;;;;4930707;29;20027;-71
2021/05/05 11:29:50;;;;;;;1.73;0.90;;;7.50;86.20;;;;;;4931190;29;20031;-72
2021/05/05 11:32:26;;;;;;;2.17;0.90;;;7.40;86.20;;;;;;4929757;29;20075;-74
2021/05/05 11:34:53;;;;;;;4.15;0.95;;;7.30;86.80;;;;;;4931522;29;20038;-72
2021/05/05 11:37:26;;;;;;;1.83;0.80;;;7.20;85.80;;;;;;4931014;29;20035;-72
2021/05/05 11:39:56;;;;;;;1.33;0.55;;;7.10;86.90;;;;;;4930445;29;20055;-71
2021/05/05 11:42:26;;;;;;;1.45;0.73;;;7.10;86.40;;;;;;4931586;29;20024;-72
2021/05/05 11:44:54;;;;;;;3.47;0.80;;;7.10;87.30;;;;;;4931895;29;20095;-72
2021/05/05 11:47:23;;;;;;;1.10;0.70;;;7.10;87.50;;;;;;4921831;29;20031;-72
2021/05/05 11:50:01;;;;;;;3.00;0.90;;;7.30;86.90;;;;;;4929017;29;20094;-72
2021/05/05 11:52:59;;;;;;;1.20;0.85;;;7.40;86.60;;;;;;4928853;29;20384;-71
2021/05/05 11:55:28;;;;;;;1.40;0.47;;;7.50;86.50;;;;;;4898322;29;20123;-72
2021/05/05 11:57:56;;;;;;;2.55;0.90;;;7.70;86.30;;;;;;4930552;29;20095;-71
2021/05/05 12:00:25;;;;;;;2.15;0.63;;;7.80;86.70;;;;;;4930305;29;20028;-72
2021/05/05 12:02:58;;;;;;;1.08;0.70;;;7.90;86.80;;;;;;4908317;29;20152;-72
2021/05/05 12:05:28;;;;;;;5.95;1.20;;;7.70;87.40;;;;;;4928432;29;20106;-72
2021/05/05 12:08:13;;;;;;;1.88;0.70;;;7.50;88.20;;;;;;4927378;29;20062;-73
2021/05/05 12:10:42;;;;;;;2.47;0.90;;;7.20;89.50;;;;;;4924479;29;20745;-72
2021/05/05 12:13:10;;;;;;;1.60;0.90;;;7.00;89.20;;;;;;4927844;29;20385;-72
2021/05/05 12:15:39;;;;;;;1.52;0.80;;;7.10;89.90;;;;;;4927442;29;20032;-75
2021/05/05 12:18:20;;;;;;;4.13;0.90;;;7.10;89.20;;;;;;4928180;29;20090;-72
2021/05/05 12:20:47;;;;;;;2.70;1.00;;;7.40;90.00;;;;;;4927245;29;20031;-72
2021/05/05 12:23:13;;;;;;;4.15;1.10;;;8.00;87.90;;;;;;4928802;29;20030;-72
2021/05/05 12:25:39;;;;;;;2.65;0.93;;;8.10;86.80;;;;;;4927636;29;20392;-72
2021/05/05 12:28:10;;;;;;;1.55;0.90;;;8.70;86.30;;;;;;4927454;29;20373;-71
2021/05/05 12:30:53;;;;;;;3.53;1.00;;;9.00;86.00;;;;;;4927621;29;20039;-71
2021/05/05 12:33:31;;;;;;;1.95;1.00;;;9.10;85.80;;;;;;4926095;29;20126;-72
2021/05/05 12:36:01;;;;;;;0.75;0.57;;;8.60;84.40;;;;;;4926696;29;20119;-72
2021/05/05 12:38:31;;;;;;;2.80;1.00;;;8.30;84.80;;;;;;4927051;29;20024;-72
2021/05/05 12:41:02;;;;;;;3.17;0.70;;;8.30;86.30;;;;;;4927492;29;20024;-71
2021/05/05 12:43:28;;;;;;;;;;;8.30;84.70;;;;;;4927582;29;20035;-72
2021/05/05 12:45:55;;;;;;;1.52;0.80;;;8.80;82.70;;;;;;4925973;29;19914;-72
2021/05/05 12:48:35;;;;;;;4.35;0.88;;;9.00;83.10;;;;;;4927907;29;20484;-73
2021/05/05 12:51:15;;;;;;;4.10;0.93;;;8.90;82.40;;;;;;4926566;29;20035;-73
2021/05/05 12:54:02;;;;;;;2.50;0.95;;;8.90;81.90;;;;;;4926533;29;20039;-72
2021/05/05 12:56:49;;;;;;;2.03;0.90;;;8.90;82.10;;;;;;4927208;29;20031;-71
2021/05/05 12:59:19;;;;;;;2.13;0.80;;;8.80;80.50;;;;;;4926664;29;20027;-72
2021/05/05 13:01:45;;;;;;;4.68;1.00;;;8.80;81.70;;;;;;4928489;29;20028;-71
2021/05/05 13:04:15;;;;;;;4.85;1.33;;;8.90;82.40;;;;;;4926747;29;20035;-70
2021/05/05 13:06:47;;;;;;;6.40;1.13;;;8.50;82.00;;;;;;4927807;29;20037;-70
2021/05/05 13:09:21;;;;;;;2.50;0.80;;;8.50;82.80;;;;;;4926851;29;20118;-70
2021/05/05 13:11:51;;;;;;;2.28;0.85;;;8.30;84.70;;;;;;4926672;29;20035;-70
2021/05/05 13:15:15;;;;;;;3.67;1.20;;;8.10;85.90;;;;;;4931152;29;20948;-71